Terminal Aerodrome Forecast
Issued by NWS

Home | Current Version | Previous Version | Text Only | Print | Product List | Glossary On
Versions: 1 2 3 4 5 6 7 8 9 10 11 12 13 14 15 16 17 18 19 20 21 22 23 24 25 26 27 28 29 30 31 32 33 34 35 36
000
FTUS45 KBOI 052338
TAFBKE
TAF
KBKE 052338Z 0600/0624 VRB04KT P6SM OVC200
     FM060300 13007KT 5SM -SHSN SCT015 OVC025
     FM060500 13006KT 2SM -SHSN SCT008 OVC015
     FM061900 31007KT P6SM VCSH SCT020 OVC040=

USA.gov is the U.S. government's official web portal to all federal, state and local government web resources and services.